Time;durP1;ratioP1;P1;durP2;ratioP2;P2;SDS_P1;SDS_P2;PMS_P1;PMS_P2;Temp;Humidity;BMP_temperature;BMP_pressure;BME280_temperature;BME280_humidity;BME280_pressure;Samples;Min_cycle;Max_cycle;Signal;HPM_P1;HPM_P2
2023/04/05 00:02:00;;;;;;;9.00;4.10;;;5.10;43.50;;;;;;4978942;28;20440;-74
2023/04/05 00:04:27;;;;;;;11.18;4.28;;;5.10;43.80;;;;;;4978571;28;20034;-74
2023/04/05 00:06:54;;;;;;;7.50;4.68;;;5.10;43.50;;;;;;4978904;28;20019;-75
2023/04/05 00:09:20;;;;;;;8.65;4.40;;;5.10;43.70;;;;;;4978782;28;20431;-74
2023/04/05 00:11:46;;;;;;;8.57;3.85;;;5.10;44.00;;;;;;4996480;28;20033;-74
2023/04/05 00:14:12;;;;;;;10.63;4.78;;;5.10;44.20;;;;;;4978728;28;20038;-75
2023/04/05 00:16:38;;;;;;;9.07;4.35;;;5.00;44.20;;;;;;4978605;28;20125;-75
2023/04/05 00:19:04;;;;;;;6.45;3.78;;;5.00;44.50;;;;;;4996098;28;20483;-74
2023/04/05 00:21:32;;;;;;;9.32;4.03;;;5.00;44.70;;;;;;4996104;28;20023;-75
2023/04/05 00:23:58;;;;;;;7.75;4.38;;;4.90;44.70;;;;;;4995970;28;20054;-75
2023/04/05 00:26:24;;;;;;;10.50;4.35;;;4.90;45.30;;;;;;4996263;28;20023;-75
2023/04/05 00:28:50;;;;;;;11.45;4.22;;;4.90;45.20;;;;;;4978541;28;20034;-75
2023/04/05 00:31:17;;;;;;;11.40;4.40;;;4.80;45.30;;;;;;4994823;28;20073;-76
2023/04/05 00:33:43;;;;;;;7.05;3.83;;;4.80;45.80;;;;;;4994361;28;20026;-75
2023/04/05 00:36:12;;;;;;;10.10;4.25;;;4.70;45.80;;;;;;4994881;28;20369;-75
2023/04/05 00:38:40;;;;;;;8.00;3.30;;;4.70;45.80;;;;;;4994979;28;20384;-74
2023/04/05 00:41:06;;;;;;;8.38;3.88;;;4.70;45.30;;;;;;4994843;28;20027;-75
2023/04/05 00:43:32;;;;;;;7.28;4.18;;;4.70;45.50;;;;;;4994541;28;20029;-74
2023/04/05 00:45:57;;;;;;;10.20;4.22;;;4.70;45.70;;;;;;4995691;28;20018;-75
2023/04/05 00:48:25;;;;;;;8.32;4.25;;;4.70;45.30;;;;;;4978103;28;20038;-74
2023/04/05 00:50:51;;;;;;;6.55;3.80;;;4.70;45.90;;;;;;4978263;28;20396;-74
2023/04/05 00:53:18;;;;;;;6.68;4.10;;;4.60;45.90;;;;;;4978391;28;20026;-75
2023/04/05 00:55:48;;;;;;;7.45;3.88;;;4.60;46.00;;;;;;4996615;28;20150;-74
2023/04/05 00:58:17;;;;;;;7.07;3.75;;;4.60;45.80;;;;;;4996810;28;20030;-74
2023/04/05 01:01:12;;;;;;;8.35;3.90;;;4.60;45.70;;;;;;4996327;28;20022;-75
2023/04/05 01:03:43;;;;;;;9.00;3.72;;;4.60;45.70;;;;;;4982454;28;20038;-75
2023/04/05 01:06:27;;;;;;;8.32;3.97;;;4.60;45.40;;;;;;4996522;28;20495;-75
2023/04/05 01:09:13;;;;;;;10.27;4.40;;;4.50;45.80;;;;;;4996005;28;20466;-75
2023/04/05 01:11:41;;;;;;;9.75;4.18;;;4.50;46.50;;;;;;4995380;28;20031;-74
2023/04/05 01:14:07;;;;;;;8.00;4.13;;;4.50;46.70;;;;;;4994872;28;20129;-74
2023/04/05 01:16:33;;;;;;;12.80;4.22;;;4.40;46.60;;;;;;4994981;28;20101;-75
2023/04/05 01:18:58;;;;;;;8.32;3.97;;;4.40;46.50;;;;;;4994933;28;20033;-75
2023/04/05 01:21:47;;;;;;;11.95;4.55;;;4.40;47.50;;;;;;4994858;28;20069;-75
2023/04/05 01:24:31;;;;;;;8.80;4.38;;;4.40;47.10;;;;;;4977382;28;20037;-75
2023/04/05 01:27:07;;;;;;;7.90;4.18;;;4.40;47.00;;;;;;4994803;28;20033;-75
2023/04/05 01:29:59;;;;;;;8.13;4.45;;;4.30;47.20;;;;;;4994752;28;20072;-75
2023/04/05 01:32:52;;;;;;;9.45;4.15;;;4.30;47.20;;;;;;4960859;28;20096;-74
2023/04/05 01:35:54;;;;;;;7.00;3.80;;;4.30;46.90;;;;;;4962937;28;20085;-75
2023/04/05 01:38:24;;;;;;;7.05;4.05;;;4.30;46.80;;;;;;4989890;28;20045;-75
2023/04/05 01:40:51;;;;;;;7.25;3.60;;;4.30;46.80;;;;;;4994583;28;20015;-74
2023/04/05 01:43:17;;;;;;;6.72;3.70;;;4.30;46.60;;;;;;4976947;28;20038;-75
2023/04/05 01:45:45;;;;;;;7.63;4.28;;;4.30;46.30;;;;;;4977014;28;20105;-75
2023/04/05 01:48:11;;;;;;;8.52;3.53;;;4.20;47.00;;;;;;4976960;28;20026;-74
2023/04/05 01:50:37;;;;;;;6.82;3.47;;;4.20;46.90;;;;;;4994370;28;20022;-74
2023/04/05 01:53:04;;;;;;;7.25;3.88;;;4.20;46.90;;;;;;4994299;28;20023;-74
2023/04/05 01:55:29;;;;;;;11.38;4.50;;;4.20;46.90;;;;;;4994343;28;20392;-74
2023/04/05 01:57:56;;;;;;;8.88;4.25;;;4.20;47.50;;;;;;4994276;28;20029;-74
2023/04/05 02:00:22;;;;;;;11.52;4.07;;;4.20;47.40;;;;;;4994271;28;20031;-75
2023/04/05 02:02:48;;;;;;;10.55;4.80;;;4.20;47.00;;;;;;4994430;28;20053;-74
2023/04/05 02:05:14;;;;;;;7.53;4.22;;;4.20;47.50;;;;;;4976465;28;20023;-74
2023/04/05 02:07:40;;;;;;;8.93;4.78;;;4.20;47.20;;;;;;4994153;28;20030;-74
2023/04/05 02:10:06;;;;;;;7.72;4.00;;;4.10;47.40;;;;;;4994072;28;20022;-74
2023/04/05 02:12:32;;;;;;;8.95;4.22;;;4.10;47.30;;;;;;4976587;28;20431;-74
2023/04/05 02:14:58;;;;;;;8.77;4.07;;;4.10;47.20;;;;;;4994123;28;20057;-74
2023/04/05 02:17:24;;;;;;;10.32;5.35;;;4.10;47.40;;;;;;4993993;28;20022;-75
2023/04/05 02:19:51;;;;;;;10.02;4.47;;;4.00;48.00;;;;;;4976614;28;20105;-75
2023/04/05 02:22:18;;;;;;;8.07;4.35;;;4.00;48.20;;;;;;4993949;28;20030;-75
2023/04/05 02:24:44;;;;;;;13.82;4.53;;;4.00;48.00;;;;;;4994261;28;20026;-75
2023/04/05 02:27:10;;;;;;;10.23;4.85;;;4.00;47.80;;;;;;4993991;28;20468;-75
2023/04/05 02:29:36;;;;;;;9.68;4.53;;;4.00;48.30;;;;;;4993896;28;20022;-74
2023/04/05 02:32:02;;;;;;;12.88;5.38;;;4.00;48.40;;;;;;4993835;28;20018;-75
2023/04/05 02:34:28;;;;;;;9.60;4.45;;;3.90;48.60;;;;;;4993324;28;20052;-74
2023/04/05 02:36:54;;;;;;;10.52;4.68;;;3.90;48.50;;;;;;4993831;28;20034;-74
2023/04/05 02:39:20;;;;;;;10.35;5.30;;;3.90;48.40;;;;;;4994109;28;20093;-74
2023/04/05 02:41:45;;;;;;;10.68;5.05;;;3.90;48.90;;;;;;4976393;28;20104;-75
2023/04/05 02:44:12;;;;;;;7.07;4.10;;;3.90;48.90;;;;;;4994024;28;20388;-74
2023/04/05 02:46:38;;;;;;;13.98;5.63;;;3.90;49.10;;;;;;4976293;28;20022;-75
2023/04/05 02:49:04;;;;;;;23.80;10.02;;;3.80;49.20;;;;;;4994056;28;20034;-75
2023/04/05 02:51:33;;;;;;;21.75;9.75;;;3.80;49.40;;;;;;4993763;28;20105;-75
2023/04/05 02:54:00;;;;;;;12.23;6.50;;;3.80;49.50;;;;;;4993745;28;20360;-74
2023/04/05 02:56:26;;;;;;;15.98;6.65;;;3.70;49.50;;;;;;4976031;28;20432;-74
2023/04/05 02:58:52;;;;;;;12.73;5.72;;;3.70;49.60;;;;;;4993987;28;20118;-75
2023/04/05 03:01:19;;;;;;;10.98;4.72;;;3.70;49.60;;;;;;4993656;28;20030;-74
2023/04/05 03:03:44;;;;;;;8.15;4.53;;;3.70;49.30;;;;;;4978700;28;20065;-75
2023/04/05 03:06:10;;;;;;;7.78;4.25;;;3.70;49.20;;;;;;4997461;28;20435;-74
2023/04/05 03:08:42;;;;;;;7.25;4.40;;;3.80;48.90;;;;;;4997386;28;20026;-74
2023/04/05 03:11:09;;;;;;;12.88;5.43;;;3.70;48.60;;;;;;4997190;28;20014;-74
2023/04/05 03:13:35;;;;;;;12.13;5.28;;;3.70;48.80;;;;;;4997549;28;20047;-74
2023/04/05 03:16:02;;;;;;;16.02;5.88;;;3.70;48.90;;;;;;4997228;28;20391;-74
2023/04/05 03:18:28;;;;;;;10.40;5.78;;;3.70;49.00;;;;;;4997211;28;20492;-74
2023/04/05 03:20:55;;;;;;;10.52;5.15;;;3.70;48.90;;;;;;4997110;28;20054;-75
2023/04/05 03:23:25;;;;;;;12.65;5.85;;;3.70;48.90;;;;;;4996949;28;20575;-74
2023/04/05 03:26:02;;;;;;;16.23;7.22;;;3.70;49.10;;;;;;4979577;28;20034;-74
2023/04/05 03:28:31;;;;;;;13.77;7.10;;;3.70;49.50;;;;;;4996940;28;20431;-75
2023/04/05 03:30:57;;;;;;;12.77;5.57;;;3.70;49.50;;;;;;4996974;28;20080;-74
2023/04/05 03:33:23;;;;;;;11.77;5.40;;;3.70;49.50;;;;;;4996733;28;20026;-74
2023/04/05 03:35:49;;;;;;;10.07;5.30;;;3.70;49.50;;;;;;4996694;28;20046;-75
2023/04/05 03:38:16;;;;;;;12.65;5.80;;;3.70;49.80;;;;;;4979251;28;20077;-75
2023/04/05 03:40:42;;;;;;;10.00;5.18;;;3.70;49.90;;;;;;4996731;28;20026;-74
2023/04/05 03:43:07;;;;;;;9.70;5.10;;;3.70;50.00;;;;;;4996606;28;20096;-75
2023/04/05 03:45:34;;;;;;;9.02;5.03;;;3.70;50.20;;;;;;4996960;28;20044;-74
2023/04/05 03:48:01;;;;;;;11.40;4.90;;;3.70;50.10;;;;;;4996510;28;20027;-74
2023/04/05 03:50:27;;;;;;;12.43;5.10;;;3.70;50.10;;;;;;4996569;28;20442;-75
2023/04/05 03:52:53;;;;;;;10.05;4.72;;;3.70;50.20;;;;;;4996418;28;20105;-74
2023/04/05 03:55:20;;;;;;;8.73;4.75;;;3.70;50.00;;;;;;4996456;28;20054;-75
2023/04/05 03:57:46;;;;;;;8.57;4.45;;;3.70;49.90;;;;;;4996411;28;20030;-74
2023/04/05 04:00:16;;;;;;;10.15;4.53;;;3.70;50.00;;;;;;4978492;28;20041;-75
2023/04/05 04:02:46;;;;;;;15.60;7.15;;;3.70;50.10;;;;;;4995955;28;20022;-74
2023/04/05 04:05:14;;;;;;;11.70;5.15;;;3.70;50.00;;;;;;4981126;28;20014;-74
2023/04/05 04:07:41;;;;;;;12.77;4.22;;;3.60;49.90;;;;;;4996303;28;20022;-74
2023/04/05 04:10:09;;;;;;;8.32;4.57;;;3.60;49.90;;;;;;4996068;28;20018;-75
2023/04/05 04:12:34;;;;;;;12.05;4.38;;;3.60;49.80;;;;;;4996167;28;20472;-75
2023/04/05 04:15:00;;;;;;;8.30;3.40;;;3.60;49.80;;;;;;4977557;28;20143;-75
2023/04/05 04:17:34;;;;;;;9.00;4.32;;;3.60;49.50;;;;;;4995751;28;20027;-74
2023/04/05 04:20:00;;;;;;;7.03;3.67;;;3.60;49.30;;;;;;4996129;28;20464;-74
2023/04/05 04:22:31;;;;;;;9.30;4.22;;;3.60;49.20;;;;;;4996249;28;20057;-75
2023/04/05 04:25:03;;;;;;;12.52;4.88;;;3.50;49.80;;;;;;4996025;28;20097;-74
2023/04/05 04:27:29;;;;;;;9.18;4.80;;;3.50;49.40;;;;;;4995951;28;20021;-74
2023/04/05 04:30:00;;;;;;;11.93;4.63;;;3.40;49.60;;;;;;4978405;28;20113;-74
2023/04/05 04:32:46;;;;;;;11.95;4.90;;;3.40;49.80;;;;;;4995842;28;20384;-75
2023/04/05 04:35:16;;;;;;;10.25;4.57;;;3.30;49.90;;;;;;4958684;28;20054;-75
2023/04/05 04:37:53;;;;;;;9.55;4.95;;;3.30;49.90;;;;;;4958871;28;20023;-75
2023/04/05 04:40:20;;;;;;;11.90;4.65;;;3.20;50.10;;;;;;4976602;28;20156;-75
2023/04/05 04:42:46;;;;;;;12.07;4.78;;;3.20;50.10;;;;;;4976004;28;20059;-74
2023/04/05 04:45:15;;;;;;;8.73;4.10;;;3.20;50.20;;;;;;4976056;28;20101;-74
2023/04/05 04:47:42;;;;;;;13.70;4.68;;;3.20;50.40;;;;;;4976041;28;20027;-75
2023/04/05 04:50:09;;;;;;;8.45;4.13;;;3.10;50.40;;;;;;4975939;28;20027;-75
2023/04/05 04:52:35;;;;;;;7.68;4.03;;;3.10;50.30;;;;;;4975958;28;20022;-74
2023/04/05 04:55:04;;;;;;;8.93;4.32;;;3.20;50.30;;;;;;4975910;28;20030;-75
2023/04/05 04:57:30;;;;;;;13.77;5.10;;;3.20;50.30;;;;;;4975883;28;20026;-74
2023/04/05 04:59:56;;;;;;;11.73;4.30;;;3.20;50.30;;;;;;4958515;28;20027;-74
2023/04/05 05:02:26;;;;;;;7.90;4.10;;;3.20;50.20;;;;;;4975723;28;20170;-74
2023/04/05 05:04:52;;;;;;;11.93;5.40;;;3.20;50.30;;;;;;4992732;28;20073;-74
2023/04/05 05:07:19;;;;;;;12.30;4.10;;;3.20;50.30;;;;;;4995023;28;20018;-74
2023/04/05 05:09:45;;;;;;;10.40;4.40;;;3.20;50.40;;;;;;4995110;28;20476;-75
2023/04/05 05:12:10;;;;;;;9.68;4.82;;;3.20;50.30;;;;;;4995606;28;20034;-75
2023/04/05 05:14:36;;;;;;;17.55;5.15;;;3.30;50.30;;;;;;4994889;28;20077;-74
2023/04/05 05:17:04;;;;;;;13.07;4.28;;;3.30;50.30;;;;;;4994863;28;20030;-75
2023/04/05 05:19:30;;;;;;;10.82;4.35;;;3.30;50.10;;;;;;4977422;28;20026;-75
2023/04/05 05:21:56;;;;;;;10.65;5.38;;;3.30;50.00;;;;;;4994827;28;20026;-75
2023/04/05 05:24:23;;;;;;;12.18;4.20;;;3.30;50.00;;;;;;4994767;28;20101;-75
2023/04/05 05:26:49;;;;;;;11.43;4.47;;;3.40;49.80;;;;;;4994462;28;20019;-74
2023/04/05 05:29:15;;;;;;;11.45;4.90;;;3.40;49.80;;;;;;4994579;28;20045;-74
2023/04/05 05:31:41;;;;;;;12.73;4.85;;;3.40;49.70;;;;;;4994748;28;20105;-75
2023/04/05 05:34:06;;;;;;;15.55;5.40;;;3.50;49.70;;;;;;4993913;28;20049;-74
2023/04/05 05:36:33;;;;;;;14.43;4.70;;;3.50;49.70;;;;;;4994400;28;20036;-75
2023/04/05 05:38:59;;;;;;;13.43;4.32;;;3.60;49.70;;;;;;4994415;28;20030;-75
2023/04/05 05:41:25;;;;;;;8.90;3.83;;;3.60;49.60;;;;;;4994602;28;20030;-75
2023/04/05 05:43:52;;;;;;;9.55;4.63;;;3.70;49.40;;;;;;4994117;28;20031;-75
2023/04/05 05:46:19;;;;;;;8.18;4.50;;;3.80;49.30;;;;;;4994560;28;20025;-75
2023/04/05 05:48:45;;;;;;;7.55;3.75;;;3.90;49.10;;;;;;4994002;28;20456;-74
2023/04/05 05:51:11;;;;;;;8.35;4.13;;;4.00;48.90;;;;;;4976881;28;20062;-74
2023/04/05 05:53:37;;;;;;;8.07;4.28;;;4.10;48.60;;;;;;4994131;28;20082;-74
2023/04/05 05:56:03;;;;;;;5.75;3.55;;;4.10;48.50;;;;;;4976647;28;20110;-74
2023/04/05 05:58:29;;;;;;;7.28;3.70;;;4.20;48.30;;;;;;4994024;28;20101;-75
2023/04/05 06:00:57;;;;;;;8.55;3.58;;;4.30;48.30;;;;;;4994103;28;20479;-75
2023/04/05 06:03:28;;;;;;;30.00;4.10;;;4.30;48.20;;;;;;4976148;28;20053;-75
2023/04/05 06:05:56;;;;;;;13.27;4.40;;;4.40;48.10;;;;;;4976355;28;20026;-75
2023/04/05 06:08:22;;;;;;;9.77;4.75;;;4.50;48.00;;;;;;4993889;28;20023;-75
2023/04/05 06:10:49;;;;;;;7.18;3.50;;;4.60;47.70;;;;;;4993956;28;20053;-75
2023/04/05 06:13:15;;;;;;;9.50;4.28;;;4.60;47.60;;;;;;4993968;28;20437;-74
2023/04/05 06:15:44;;;;;;;7.82;3.22;;;4.70;47.50;;;;;;4993882;28;20455;-75
2023/04/05 06:18:10;;;;;;;6.65;3.53;;;4.70;47.40;;;;;;4993931;28;20031;-75
2023/04/05 06:20:39;;;;;;;8.27;3.63;;;4.80;47.30;;;;;;4993836;28;20030;-74
2023/04/05 06:23:09;;;;;;;7.60;3.33;;;4.90;47.20;;;;;;4993697;28;20033;-75
2023/04/05 06:25:35;;;;;;;6.60;2.70;;;5.00;46.60;;;;;;4993743;28;20023;-74
2023/04/05 06:28:03;;;;;;;11.63;2.42;;;5.10;46.00;;;;;;4993731;28;20035;-75
2023/04/05 06:30:29;;;;;;;6.43;2.85;;;5.10;45.90;;;;;;4993613;28;20071;-75
2023/04/05 06:32:55;;;;;;;8.18;3.13;;;5.20;45.10;;;;;;4993342;28;20099;-74
2023/04/05 06:35:22;;;;;;;6.85;2.85;;;5.20;44.60;;;;;;4993659;28;20129;-74
2023/04/05 06:37:47;;;;;;;8.60;3.10;;;5.30;44.20;;;;;;4995077;28;20033;-75
2023/04/05 06:40:14;;;;;;;7.90;3.38;;;5.40;43.60;;;;;;4997747;28;20030;-75
2023/04/05 06:42:40;;;;;;;9.15;2.65;;;5.40;43.20;;;;;;4980040;28;20038;-75
2023/04/05 06:45:06;;;;;;;4.07;2.28;;;5.50;43.60;;;;;;4980001;28;20380;-74
2023/04/05 06:47:39;;;;;;;11.50;3.05;;;5.50;42.60;;;;;;4997470;28;20022;-75
2023/04/05 06:50:07;;;;;;;6.50;2.50;;;5.60;42.00;;;;;;4997637;28;20472;-75
2023/04/05 06:52:34;;;;;;;9.10;3.22;;;5.60;42.20;;;;;;4980134;28;20031;-75
2023/04/05 06:55:00;;;;;;;9.13;2.90;;;5.60;41.60;;;;;;4997731;28;20473;-74
2023/04/05 06:57:26;;;;;;;5.43;2.63;;;5.60;40.70;;;;;;4997488;28;20102;-74
2023/04/05 06:59:53;;;;;;;5.40;2.25;;;5.70;40.60;;;;;;4979781;28;20029;-74
2023/04/05 07:02:20;;;;;;;6.22;2.42;;;5.70;40.40;;;;;;4997327;28;20022;-75
2023/04/05 07:04:47;;;;;;;9.48;2.85;;;5.70;40.20;;;;;;4979425;28;20431;-74
2023/04/05 07:07:13;;;;;;;6.90;2.63;;;5.80;40.30;;;;;;4997197;28;20022;-74
2023/04/05 07:09:39;;;;;;;6.75;3.15;;;5.90;41.00;;;;;;4997207;28;20018;-75
2023/04/05 07:12:06;;;;;;;7.03;3.25;;;6.00;41.30;;;;;;4979662;28;20077;-74
2023/04/05 07:14:34;;;;;;;6.40;2.70;;;6.10;40.50;;;;;;4979643;28;20117;-74
2023/04/05 07:17:00;;;;;;;11.90;2.60;;;6.10;40.10;;;;;;4997036;28;20097;-74
2023/04/05 07:19:26;;;;;;;4.63;2.20;;;6.20;40.50;;;;;;4997291;28;20157;-75
2023/04/05 07:21:52;;;;;;;5.93;2.45;;;6.30;40.60;;;;;;4997033;28;20026;-75
2023/04/05 07:24:18;;;;;;;6.18;2.30;;;6.30;40.10;;;;;;4997098;28;20479;-74
2023/04/05 07:26:44;;;;;;;6.80;2.88;;;6.40;39.70;;;;;;4979222;28;20134;-74
